Time;durP1;ratioP1;P1;durP2;ratioP2;P2;SDS_P1;SDS_P2;PMS_P1;PMS_P2;Temp;Humidity;BMP_temperature;BMP_pressure;BME280_temperature;BME280_humidity;BME280_pressure;Samples;Min_cycle;Max_cycle;Signal;HPM_P1;HPM_P2
2022/01/06 00:00:21;;;;;;;23.57;9.55;;;;;;;13.29;53.22;100448.62;1634670;86;21177;-53
2022/01/06 00:02:48;;;;;;;21.65;9.85;;;;;;;13.27;53.21;100449.97;1641412;86;21030;-53
2022/01/06 00:05:14;;;;;;;23.75;8.85;;;;;;;13.25;53.34;100452.27;1613204;87;21614;-53
2022/01/06 00:07:41;;;;;;;14.83;8.70;;;;;;;13.24;53.41;100447.94;1588869;87;21164;-52
2022/01/06 00:10:12;;;;;;;20.85;9.05;;;;;;;13.23;53.47;100451.47;1637983;86;21065;-53
2022/01/06 00:25:30;;;;;;;11.57;7.87;;;;;;;13.21;53.92;100463.74;1484414;97;21124;-53
2022/01/06 00:27:57;;;;;;;10.93;8.00;;;;;;;13.19;54.00;100452.50;1484793;97;21115;-53
2022/01/06 00:30:24;;;;;;;12.88;8.25;;;;;;;13.17;53.99;100447.78;1484551;97;21143;-52
2022/01/06 00:32:51;;;;;;;8.20;7.33;;;;;;;13.16;53.97;100440.84;1484444;97;21135;-52
2022/01/06 00:35:18;;;;;;;12.90;7.67;;;;;;;13.14;53.97;100442.21;1484760;97;21092;-57
2022/01/06 00:37:44;;;;;;;11.83;7.78;;;;;;;13.13;53.98;100442.28;1484641;97;21220;-53
2022/01/06 00:40:12;;;;;;;11.22;7.50;;;;;;;13.13;53.87;100437.05;1484698;97;21076;-52
2022/01/06 00:42:39;;;;;;;9.10;7.47;;;;;;;13.14;53.77;100436.13;1491899;95;21134;-53
2022/01/06 00:45:07;;;;;;;11.85;7.37;;;;;;;13.12;53.70;100428.80;1511322;95;21199;-53
2022/01/06 00:47:34;;;;;;;11.08;7.78;;;;;;;13.10;53.63;100425.39;1511706;95;21122;-53
2022/01/06 00:50:01;;;;;;;7.92;7.12;;;;;;;13.10;53.60;100429.31;1511520;95;21082;-53
2022/01/06 00:52:27;;;;;;;8.58;7.08;;;;;;;13.07;53.53;100430.27;1511402;93;21210;-53
2022/01/06 00:54:54;;;;;;;10.68;7.78;;;;;;;13.05;53.43;100440.78;1511518;95;21045;-53
2022/01/06 00:57:20;;;;;;;7.75;6.80;;;;;;;13.04;53.38;100442.16;1511550;95;21146;-52
2022/01/06 00:59:47;;;;;;;8.65;7.65;;;;;;;13.03;53.39;100445.18;1511584;94;21133;-53
2022/01/06 01:02:13;;;;;;;9.00;7.08;;;;;;;13.02;53.33;100433.02;1511750;95;21121;-53
2022/01/06 01:04:40;;;;;;;8.53;7.62;;;;;;;13.00;53.28;100434.00;1511555;95;21066;-53
2022/01/06 01:07:06;;;;;;;10.85;7.83;;;;;;;12.98;53.30;100430.12;1511729;95;21050;-53
2022/01/06 01:09:33;;;;;;;11.03;7.45;;;;;;;12.96;53.31;100420.18;1511173;95;21089;-53
2022/01/06 01:12:04;;;;;;;8.40;7.50;;;;;;;12.96;53.29;100423.27;1520318;93;21098;-53
2022/01/06 01:14:43;;;;;;;10.05;7.70;;;;;;;12.95;53.27;100426.33;1578414;89;21100;-53
2022/01/06 01:17:03;;;;;;;8.78;7.62;;;;;;;12.95;53.29;100418.49;1603688;88;21070;-53
2022/01/06 01:19:31;;;;;;;10.82;7.75;;;;;;;12.94;53.30;100415.95;1620262;87;21113;-53
2022/01/06 01:21:57;;;;;;;11.63;8.00;;;;;;;12.92;53.31;100431.65;1687185;83;21048;-53
2022/01/06 01:24:24;;;;;;;9.28;7.95;;;;;;;12.92;53.19;100431.65;1681842;84;21096;-53
2022/01/06 01:26:50;;;;;;;12.63;7.78;;;;;;;12.91;53.12;100428.66;1693953;83;22449;-53
2022/01/06 01:29:17;;;;;;;9.73;7.08;;;;;;;12.90;53.21;100428.72;1678735;83;21050;-53
2022/01/06 01:34:16;;;;;;;10.10;7.42;;;;;;;12.90;53.00;100430.02;1614741;88;21093;-53
2022/01/06 01:36:44;;;;;;;9.08;6.90;;;;;;;12.89;52.96;100431.78;1622403;87;21069;-53
2022/01/06 01:39:10;;;;;;;8.58;7.00;;;;;;;13.02;52.56;100431.70;1614857;87;21550;-54
2022/01/06 01:41:37;;;;;;;8.50;6.95;;;;;;;13.10;52.25;100421.48;1620211;87;21065;-53
2022/01/06 01:44:11;;;;;;;9.58;7.55;;;;;;;12.96;52.53;100412.34;1618384;87;21589;-53
2022/01/06 01:46:42;;;;;;;9.60;6.90;;;;;;;13.05;52.31;100422.50;1613099;86;21068;-53
2022/01/06 01:51:45;;;;;;;9.80;7.58;;;;;;;13.04;52.25;100418.17;1616426;87;21659;-53
2022/01/06 01:54:12;;;;;;;9.00;6.65;;;;;;;13.06;52.14;100407.69;1622921;86;21494;-54
2022/01/06 01:56:38;;;;;;;8.95;7.58;;;;;;;13.07;52.08;100400.23;1627268;87;21569;-53
2022/01/06 01:59:05;;;;;;;8.00;7.00;;;;;;;13.07;51.95;100400.23;1632472;86;21129;-53
2022/01/06 02:01:32;;;;;;;8.53;6.92;;;;;;;13.06;51.91;100395.45;1623372;88;21026;-53
2022/01/06 02:03:58;;;;;;;9.60;7.62;;;;;;;13.11;51.74;100395.77;1621999;87;21647;-54
2022/01/06 02:06:25;;;;;;;8.93;7.67;;;;;;;13.10;51.55;100405.36;1615274;87;21490;-53
2022/01/06 02:08:51;;;;;;;11.90;7.08;;;;;;;13.08;51.55;100402.39;1612343;87;21574;-53
2022/01/06 02:11:18;;;;;;;8.83;6.80;;;;;;;13.05;51.46;100400.30;1647428;83;20971;-53
2022/01/06 02:13:50;;;;;;;10.05;7.72;;;;;;;13.03;51.42;100398.16;1693472;83;21066;-53
2022/01/06 02:16:22;;;;;;;10.90;8.28;;;;;;;12.80;51.80;100392.93;1685244;83;21545;-53
2022/01/06 02:18:49;;;;;;;10.63;7.58;;;;;;;12.55;52.58;100385.58;1618133;87;21023;-53
2022/01/06 02:21:15;;;;;;;9.53;6.78;;;;;;;12.49;52.78;100384.97;1587617;89;21095;-54
2022/01/06 02:23:42;;;;;;;9.85;7.50;;;;;;;12.45;52.85;100384.20;1615800;87;21069;-53
2022/01/06 02:26:09;;;;;;;9.98;7.62;;;;;;;12.42;52.92;100388.23;1593967;88;21075;-54
2022/01/06 02:28:35;;;;;;;9.65;7.95;;;;;;;12.41;53.04;100388.27;1608573;87;21067;-53
2022/01/06 02:31:01;;;;;;;13.62;9.03;;;;;;;12.40;53.09;100389.19;1624243;88;21023;-53
2022/01/06 02:33:28;;;;;;;10.75;8.78;;;;;;;12.39;53.16;100384.41;1617254;88;21067;-53
2022/01/06 02:35:55;;;;;;;10.50;8.25;;;;;;;12.39;53.12;100381.81;1611456;88;21549;-53
2022/01/06 02:38:22;;;;;;;9.63;7.80;;;;;;;12.39;53.21;100375.28;1616212;88;21070;-53
2022/01/06 02:40:48;;;;;;;9.93;8.13;;;;;;;12.40;53.24;100377.00;1623706;88;21102;-53
2022/01/06 02:43:18;;;;;;;10.75;8.20;;;;;;;12.42;53.22;100382.16;1617310;88;21062;-54
2022/01/06 02:45:45;;;;;;;11.45;7.90;;;;;;;12.44;53.16;100382.52;1613525;87;21058;-53
2022/01/06 02:48:14;;;;;;;10.40;8.33;;;;;;;12.46;53.09;100385.92;1592080;88;21066;-53
2022/01/06 02:50:43;;;;;;;9.63;7.62;;;;;;;12.49;52.91;100377.97;1618199;88;21093;-53
2022/01/06 02:53:11;;;;;;;9.28;8.33;;;;;;;12.52;52.87;100371.80;1597383;88;21062;-53
2022/01/06 02:55:47;;;;;;;9.25;7.35;;;;;;;12.52;52.72;100367.43;1624398;88;21057;-53
2022/01/06 02:58:11;;;;;;;9.35;7.90;;;;;;;12.53;52.64;100369.13;1576237;89;21496;-53
2022/01/06 03:00:38;;;;;;;12.07;8.75;;;;;;;12.53;52.54;100381.34;1578846;89;21043;-53
2022/01/06 03:03:04;;;;;;;9.98;8.23;;;;;;;12.52;52.32;100402.66;1562764;90;21393;-53
2022/01/06 03:05:31;;;;;;;10.28;8.15;;;;;;;12.50;52.32;100414.91;1568537;89;21056;-53
2022/01/06 03:07:57;;;;;;;10.43;7.85;;;;;;;12.48;52.27;100421.95;1571600;90;21089;-53
2022/01/06 03:10:24;;;;;;;11.45;8.33;;;;;;;12.45;52.30;100423.34;1575216;90;21015;-53
2022/01/06 03:12:52;;;;;;;10.75;8.90;;;;;;;12.42;52.23;100420.86;1567306;89;21087;-53
2022/01/06 03:15:24;;;;;;;8.78;7.65;;;;;;;12.38;52.27;100428.39;1595160;87;21162;-54
2022/01/06 03:17:53;;;;;;;11.03;7.55;;;;;;;12.36;52.27;100433.25;1624030;87;21597;-53
2022/01/06 03:20:21;;;;;;;13.93;8.05;;;;;;;12.33;52.17;100421.16;1617448;87;21063;-53
2022/01/06 03:22:48;;;;;;;20.97;9.53;;;;;;;12.32;52.19;100427.73;1607001;87;21093;-53
2022/01/06 03:25:15;;;;;;;22.25;10.65;;;;;;;12.31;52.36;100424.72;1599454;88;21128;-54
2022/01/06 03:27:42;;;;;;;23.38;9.38;;;;;;;12.29;52.42;100423.47;1604915;88;21589;-53
2022/01/06 03:30:12;;;;;;;17.25;9.95;;;;;;;12.30;52.55;100417.36;1603349;88;21585;-53
2022/01/06 03:32:38;;;;;;;20.48;9.45;;;;;;;12.30;52.77;100406.92;1607042;88;21115;-54
2022/01/06 03:35:08;;;;;;;20.05;10.43;;;;;;;12.29;53.08;100409.13;1610916;88;21064;-53
2022/01/06 03:37:35;;;;;;;15.30;8.90;;;;;;;12.28;53.15;100416.56;1608075;88;21037;-53
2022/01/06 03:40:04;;;;;;;20.68;10.05;;;;;;;12.28;53.27;100419.17;1603973;89;21108;-53
2022/01/06 03:42:33;;;;;;;14.23;9.47;;;;;;;12.28;53.25;100417.39;1612231;88;21585;-54
2022/01/06 03:45:00;;;;;;;11.12;7.78;;;;;;;12.29;53.08;100422.17;1604250;89;21044;-53
2022/01/06 03:47:27;;;;;;;11.83;8.00;;;;;;;12.28;53.04;100417.39;1603552;89;21064;-53
2022/01/06 03:49:53;;;;;;;12.03;8.10;;;;;;;12.29;52.86;100415.64;1619236;87;21120;-53
2022/01/06 03:52:20;;;;;;;9.48;7.67;;;;;;;12.28;52.81;100400.91;1614596;87;21032;-53
2022/01/06 03:54:46;;;;;;;10.20;8.55;;;;;;;12.28;52.76;100400.91;1638559;83;21070;-53
2022/01/06 03:57:14;;;;;;;9.85;7.62;;;;;;;12.30;52.69;100401.71;1674935;84;21015;-53
2022/01/06 03:59:42;;;;;;;8.70;7.75;;;;;;;12.29;52.61;100399.98;1683452;82;20983;-53
2022/01/06 04:02:08;;;;;;;9.33;7.47;;;;;;;12.28;52.61;100399.61;1685455;83;21039;-53
2022/01/06 04:04:37;;;;;;;8.93;7.75;;;;;;;12.28;52.53;100397.45;1695467;83;21035;-53
2022/01/06 04:07:04;;;;;;;10.15;8.30;;;;;;;12.26;52.53;100398.81;1681467;83;21047;-53
2022/01/06 04:09:31;;;;;;;11.25;8.15;;;;;;;12.24;52.54;100399.31;1708145;83;21483;-53
2022/01/06 04:11:58;;;;;;;13.48;7.95;;;;;;;12.20;52.51;100406.37;1684014;83;21526;-54
2022/01/06 04:14:25;;;;;;;14.28;8.73;;;;;;;12.18;52.67;100408.17;1693743;83;21589;-53
2022/01/06 04:16:58;;;;;;;10.63;8.03;;;;;;;12.16;52.72;100407.38;1698400;83;21511;-53
2022/01/06 04:19:20;;;;;;;13.78;9.00;;;;;;;12.17;52.63;100421.28;1674571;83;21107;-53
2022/01/06 04:21:46;;;;;;;14.80;8.85;;;;;;;12.15;52.71;100425.70;1692721;83;20972;-53
2022/01/06 04:24:13;;;;;;;11.63;8.83;;;;;;;12.16;52.65;100424.77;1698605;83;21003;-53
2022/01/06 04:26:39;;;;;;;14.18;8.28;;;;;;;12.15;52.69;100423.09;1685511;83;21051;-53
2022/01/06 04:29:05;;;;;;;11.88;7.90;;;;;;;12.16;52.50;100424.77;1685753;83;20970;-53
2022/01/06 04:31:32;;;;;;;9.95;7.90;;;;;;;12.15;52.49;100433.08;1703277;83;21022;-53
2022/01/06 04:33:58;;;;;;;9.90;7.75;;;;;;;12.15;52.45;100435.69;1701891;83;21040;-53
2022/01/06 04:36:25;;;;;;;9.63;6.78;;;;;;;12.15;52.29;100440.04;1702082;83;21029;-53
2022/01/06 04:38:51;;;;;;;9.70;7.78;;;;;;;12.15;52.10;100450.47;1687743;83;21062;-53
2022/01/06 04:41:17;;;;;;;9.18;6.95;;;;;;;12.12;52.02;100453.16;1698828;83;21022;-54
2022/01/06 04:43:44;;;;;;;11.33;8.25;;;;;;;12.09;52.04;100457.20;1680328;83;21057;-53
2022/01/06 04:46:10;;;;;;;13.00;9.90;;;;;;;12.05;52.06;100455.59;1700060;83;21063;-53
2022/01/06 04:48:37;;;;;;;13.10;9.38;;;;;;;12.01;52.19;100450.08;1682995;83;21507;-53
2022/01/06 04:51:04;;;;;;;11.20;9.10;;;;;;;11.97;52.26;100457.59;1680608;84;21515;-53
2022/01/06 04:53:31;;;;;;;11.45;8.13;;;;;;;11.93;52.49;100469.85;1670636;85;21550;-53
2022/01/06 04:55:59;;;;;;;11.22;7.75;;;;;;;11.91;52.64;100473.44;1709275;83;21027;-53
2022/01/06 04:58:26;;;;;;;11.73;8.33;;;;;;;11.91;52.75;100482.56;1687833;82;21107;-53
2022/01/06 05:00:53;;;;;;;14.93;9.25;;;;;;;11.93;52.72;100482.89;1694996;83;21018;-53
2022/01/06 05:03:19;;;;;;;10.28;8.70;;;;;;;11.92;52.76;100489.02;1686394;82;20986;-53
2022/01/06 05:05:45;;;;;;;9.58;7.72;;;;;;;11.92;52.72;100502.06;1676858;83;20998;-53
2022/01/06 05:08:12;;;;;;;8.90;7.28;;;;;;;11.93;52.61;100502.92;1686946;83;21036;-53
2022/01/06 05:10:39;;;;;;;10.30;7.78;;;;;;;11.92;52.49;100509.02;1679366;83;21049;-53
2022/01/06 05:13:05;;;;;;;8.20;7.37;;;;;;;11.86;52.43;100514.42;1699500;83;21065;-53
2022/01/06 05:15:32;;;;;;;8.98;7.65;;;;;;;11.76;52.54;100522.13;1701689;83;20992;-53
2022/01/06 05:17:58;;;;;;;8.55;6.90;;;;;;;11.66;52.74;100501.12;1701210;83;21538;-54
2022/01/06 05:20:26;;;;;;;8.48;7.17;;;;;;;11.62;52.88;100502.11;1687168;83;21561;-53
2022/01/06 05:25:25;;;;;;;10.10;7.85;;;;;;;11.64;52.94;100509.44;1639363;85;21519;-54
2022/01/06 05:27:50;;;;;;;8.65;7.33;;;;;;;11.64;52.88;100518.55;1651828;84;21102;-53
2022/01/06 05:30:16;;;;;;;9.55;7.95;;;;;;;11.65;52.82;100521.55;1647998;84;21219;-53
2022/01/06 05:32:43;;;;;;;8.55;7.65;;;;;;;11.65;52.83;100516.34;1648226;86;21561;-53
2022/01/06 05:35:10;;;;;;;8.80;6.97;;;;;;;11.65;52.82;100520.25;1631057;85;21622;-53
2022/01/06 05:37:36;;;;;;;9.05;7.72;;;;;;;11.64;52.83;100515.95;1646825;85;21031;-53
2022/01/06 05:40:04;;;;;;;12.68;8.38;;;;;;;11.65;52.71;100513.73;1642613;84;21696;-54
2022/01/06 05:42:31;;;;;;;9.38;8.25;;;;;;;11.63;52.54;100512.92;1641991;86;21078;-53
2022/01/06 05:44:58;;;;;;;9.78;8.45;;;;;;;11.62;52.54;100507.32;1645619;85;21577;-53
2022/01/06 05:47:24;;;;;;;12.07;9.20;;;;;;;11.62;52.46;100507.32;1653862;84;21636;-53
2022/01/06 05:49:51;;;;;;;14.45;9.60;;;;;;;11.61;52.52;100508.20;1652041;84;21508;-53
2022/01/06 05:52:18;;;;;;;10.15;8.78;;;;;;;11.61;52.53;100498.64;1644476;85;21250;-53
2022/01/06 05:54:45;;;;;;;16.17;10.85;;;;;;;11.63;52.64;100493.38;1650409;85;21062;-53
2022/01/06 05:57:13;;;;;;;14.28;9.68;;;;;;;11.62;52.68;100502.11;1653013;85;21089;-53
2022/01/06 05:59:40;;;;;;;15.00;10.40;;;;;;;11.61;52.89;100496.03;1656264;85;21069;-54
2022/01/06 06:02:07;;;;;;;12.25;9.60;;;;;;;11.61;53.13;100500.39;1660535;84;21592;-53
2022/01/06 06:04:35;;;;;;;13.55;9.45;;;;;;;11.62;53.28;100504.72;1659857;84;21054;-53
2022/01/06 06:07:01;;;;;;;13.75;10.13;;;;;;;11.64;53.53;100505.52;1657257;85;21104;-53
2022/01/06 06:09:29;;;;;;;15.38;10.30;;;;;;;11.59;53.81;100507.40;1644344;85;21221;-53
2022/01/06 06:11:56;;;;;;;15.08;10.78;;;;;;;11.61;53.89;100503.86;1648769;85;21510;-53
2022/01/06 06:14:22;;;;;;;14.68;9.95;;;;;;;11.65;53.94;100504.61;1652613;84;21062;-53
2022/01/06 06:16:50;;;;;;;15.13;8.88;;;;;;;11.65;54.10;100511.13;1656420;85;21109;-53
2022/01/06 06:19:17;;;;;;;15.53;9.75;;;;;;;11.67;54.20;100525.00;1649536;85;21026;-53
2022/01/06 06:21:43;;;;;;;13.95;8.88;;;;;;;11.73;54.28;100528.72;1667427;82;21104;-53
2022/01/06 06:24:10;;;;;;;12.50;9.83;;;;;;;11.75;54.25;100545.16;1680086;83;21011;-53
2022/01/06 06:26:36;;;;;;;9.95;8.23;;;;;;;11.81;54.29;100560.66;1689341;83;21054;-54
2022/01/06 06:29:02;;;;;;;10.45;8.30;;;;;;;11.85;54.33;100559.66;1700498;83;20976;-53
2022/01/06 06:31:29;;;;;;;11.48;8.68;;;;;;;11.90;54.11;100544.72;1675701;83;21023;-54
2022/01/06 06:33:55;;;;;;;10.72;8.48;;;;;;;11.95;53.86;100553.27;1677830;83;21058;-54
2022/01/06 06:36:22;;;;;;;9.08;8.08;;;;;;;11.98;53.59;100564.89;1693896;84;21065;-53
2022/01/06 06:38:48;;;;;;;10.88;9.03;;;;;;;11.99;53.38;100557.48;1700106;83;21061;-53
2022/01/06 06:41:15;;;;;;;10.58;8.43;;;;;;;12.02;53.26;100564.76;1699270;83;21003;-54
2022/01/06 06:43:41;;;;;;;11.35;9.28;;;;;;;12.03;53.13;100559.09;1687484;83;21081;-54
2022/01/06 06:46:08;;;;;;;10.58;9.10;;;;;;;12.07;52.99;100562.87;1682831;83;21105;-54
2022/01/06 06:48:35;;;;;;;11.97;9.25;;;;;;;12.10;52.87;100561.91;1676201;85;21011;-54
2022/01/06 06:51:02;;;;;;;11.25;9.55;;;;;;;12.08;52.94;100549.36;1682260;84;21078;-54
2022/01/06 06:53:29;;;;;;;8.63;7.83;;;;;;;12.08;52.94;100550.66;1670940;85;21041;-54
2022/01/06 06:55:56;;;;;;;10.58;8.93;;;;;;;12.11;52.86;100550.59;1670516;85;21562;-54
2022/01/06 06:58:23;;;;;;;9.15;8.10;;;;;;;12.13;52.81;100558.77;1669334;85;21082;-53
2022/01/06 07:00:50;;;;;;;11.12;9.03;;;;;;;12.15;52.79;100554.36;1678336;85;21025;-53
2022/01/06 07:03:16;;;;;;;11.93;8.13;;;;;;;12.05;53.11;100548.17;1691521;83;21050;-54
2022/01/06 07:05:43;;;;;;;13.58;9.83;;;;;;;12.04;53.10;100547.75;1702826;82;21010;-54
2022/01/06 07:08:10;;;;;;;18.32;9.98;;;;;;;12.08;53.04;100554.58;1692408;83;21058;-54
2022/01/06 07:10:37;;;;;;;16.75;9.95;;;;;;;12.10;53.16;100565.81;1697310;83;20987;-53
2022/01/06 07:13:03;;;;;;;19.05;10.15;;;;;;;12.11;53.18;100566.23;1701743;83;21087;-53
2022/01/06 07:15:32;;;;;;;14.58;9.85;;;;;;;12.13;53.35;100567.04;1690268;83;21105;-53
2022/01/06 07:17:59;;;;;;;12.30;8.90;;;;;;;12.17;53.49;100555.61;1705124;82;21668;-53
2022/01/06 07:20:25;;;;;;;13.98;9.05;;;;;;;12.23;53.47;100548.45;1679250;84;21534;-53
2022/01/06 07:22:52;;;;;;;15.50;10.00;;;;;;;12.28;53.37;100542.62;1678246;83;21057;-53
2022/01/06 07:25:19;;;;;;;12.40;9.30;;;;;;;12.32;53.34;100553.83;1688078;83;21101;-53
2022/01/06 07:27:46;;;;;;;14.43;9.75;;;;;;;12.38;53.35;100552.33;1682601;83;21136;-53
2022/01/06 07:30:13;;;;;;;12.35;9.58;;;;;;;12.41;53.37;100550.91;1683329;83;21081;-54
2022/01/06 07:32:47;;;;;;;10.78;9.03;;;;;;;12.48;53.36;100543.30;1691570;83;21577;-53
2022/01/06 07:35:14;;;;;;;9.28;8.00;;;;;;;12.53;53.35;100542.67;1618746;88;21237;-53
2022/01/06 07:37:40;;;;;;;11.10;9.03;;;;;;;12.61;53.18;100545.87;1627403;88;21034;-53
2022/01/06 07:40:09;;;;;;;14.00;10.30;;;;;;;12.67;53.06;100552.23;1624823;88;21070;-53
2022/01/06 07:42:36;;;;;;;12.63;8.80;;;;;;;12.74;52.95;100556.77;1625464;87;21180;-53
2022/01/06 07:45:04;;;;;;;18.85;12.13;;;;;;;12.81;52.84;100563.50;1607963;88;21109;-53
2022/01/06 07:47:33;;;;;;;13.40;10.30;;;;;;;12.86;52.79;100565.05;1613249;88;21125;-53
2022/01/06 07:49:59;;;;;;;13.35;11.00;;;;;;;12.91;52.66;100568.38;1618856;88;21538;-53
2022/01/06 07:52:26;;;;;;;11.85;10.05;;;;;;;12.96;52.46;100576.88;1619044;87;21613;-53
2022/01/06 07:54:52;;;;;;;15.25;11.80;;;;;;;12.97;52.46;100570.77;1621093;87;21577;-53
2022/01/06 07:57:19;;;;;;;17.27;13.53;;;;;;;13.01;52.43;100577.59;1617472;87;21549;-53
2022/01/06 07:59:45;;;;;;;25.35;18.15;;;;;;;13.04;52.32;100579.28;1620661;87;21545;-53
2022/01/06 08:02:12;;;;;;;22.05;16.00;;;;;;;13.08;52.32;100576.11;1621699;88;21602;-52
2022/01/06 08:04:38;;;;;;;20.02;15.10;;;;;;;13.10;52.26;100582.98;1621104;88;21566;-53
2022/01/06 08:07:05;;;;;;;13.03;10.55;;;;;;;13.13;52.23;100572.89;1615242;87;21541;-53
2022/01/06 08:09:33;;;;;;;13.03;10.38;;;;;;;13.18;52.20;100569.20;1622580;88;21094;-53
2022/01/06 08:11:59;;;;;;;12.55;9.90;;;;;;;13.22;51.98;100569.94;1615701;88;21042;-53
2022/01/06 08:14:29;;;;;;;13.18;9.30;;;;;;;13.25;52.03;100560.70;1618313;88;21102;-53
2022/01/06 08:16:57;;;;;;;12.15;10.23;;;;;;;13.30;52.06;100561.38;1608566;87;21046;-53
2022/01/06 08:19:24;;;;;;;10.63;9.20;;;;;;;13.35;52.11;100562.94;1605962;87;21091;-53
2022/01/06 08:21:52;;;;;;;11.38;9.25;;;;;;;13.42;52.14;100564.84;1613973;87;21137;-53
2022/01/06 08:24:18;;;;;;;11.50;8.78;;;;;;;13.47;51.93;100568.16;1614113;88;21042;-54
2022/01/06 08:26:45;;;;;;;9.88;8.88;;;;;;;13.53;51.94;100574.47;1612576;86;21086;-53
2022/01/06 08:29:11;;;;;;;13.68;8.90;;;;;;;13.57;51.86;100577.37;1615117;88;21084;-53
2022/01/06 08:31:38;;;;;;;10.88;8.95;;;;;;;13.61;51.77;100571.12;1650287;83;21090;-53
2022/01/06 08:34:04;;;;;;;13.90;10.98;;;;;;;13.63;51.67;100574.53;1691620;82;21479;-53
2022/01/06 08:36:30;;;;;;;11.53;9.25;;;;;;;13.67;51.63;100580.04;1680313;84;21058;-54
2022/01/06 08:38:57;;;;;;;11.10;9.50;;;;;;;13.70;51.64;100583.86;1690631;83;21007;-53
2022/01/06 08:41:24;;;;;;;10.85;9.10;;;;;;;13.73;51.65;100584.59;1682259;83;21038;-53
2022/01/06 08:43:50;;;;;;;11.22;9.40;;;;;;;13.77;51.63;100582.70;1672259;83;21026;-53
2022/01/06 08:46:17;;;;;;;11.55;8.55;;;;;;;13.82;51.63;100578.17;1716752;83;21076;-53
2022/01/06 08:48:44;;;;;;;10.63;8.70;;;;;;;13.86;51.66;100574.53;1686189;83;21082;-54
2022/01/06 08:51:10;;;;;;;10.85;9.18;;;;;;;13.91;51.77;100580.42;1706507;83;21082;-53
2022/01/06 08:53:37;;;;;;;11.55;9.60;;;;;;;13.98;51.53;100583.21;1703780;82;21054;-53
2022/01/06 08:56:04;;;;;;;15.65;9.83;;;;;;;14.04;51.50;100579.05;1710567;83;21030;-53
2022/01/06 08:58:31;;;;;;;15.55;9.68;;;;;;;14.11;51.58;100580.53;1688398;82;21053;-53
2022/01/06 09:00:57;;;;;;;13.72;9.55;;;;;;;14.18;51.54;100585.91;1696201;83;21014;-53
2022/01/06 09:03:24;;;;;;;19.67;10.60;;;;;;;14.20;51.43;100593.23;1697955;83;21464;-53
2022/01/06 09:05:50;;;;;;;14.03;9.33;;;;;;;14.21;51.39;100592.34;1682296;83;21503;-53
2022/01/06 09:08:17;;;;;;;17.87;10.10;;;;;;;14.21;51.50;100592.34;1685574;82;21514;-54
2022/01/06 09:10:43;;;;;;;14.68;9.63;;;;;;;14.20;51.63;100595.85;1686788;84;21028;-54
2022/01/06 09:13:10;;;;;;;14.23;8.88;;;;;;;14.19;51.81;100591.55;1703256;83;21028;-54
2022/01/06 09:15:36;;;;;;;17.40;9.63;;;;;;;14.19;51.97;100602.02;1702854;82;21042;-54
2022/01/06 09:18:03;;;;;;;18.27;9.48;;;;;;;14.20;52.10;100599.78;1682667;84;21010;-54
2022/01/06 09:20:32;;;;;;;24.95;10.20;;;;;;;14.22;52.16;100594.03;1689296;83;21043;-54
2022/01/06 09:22:58;;;;;;;20.62;11.40;;;;;;;14.24;52.32;100592.20;1679214;83;21030;-54
2022/01/06 09:25:25;;;;;;;13.95;9.53;;;;;;;14.28;52.33;100587.28;1698056;83;21038;-54
2022/01/06 09:27:51;;;;;;;14.93;9.73;;;;;;;14.34;52.29;100585.72;1682266;83;21636;-54
2022/01/06 09:30:23;;;;;;;18.85;8.30;;;;;;;14.38;52.28;100583.41;1688853;83;21545;-55
2022/01/06 09:32:47;;;;;;;14.58;10.48;;;;;;;14.44;52.21;100580.55;1684593;83;21046;-54
2022/01/06 09:35:13;;;;;;;12.33;9.88;;;;;;;14.49;52.20;100577.72;1673555;83;21093;-54
2022/01/06 09:37:40;;;;;;;11.45;9.45;;;;;;;14.53;51.96;100580.16;1693404;83;21066;-53
2022/01/06 09:40:09;;;;;;;13.60;10.68;;;;;;;14.60;51.82;100573.77;1697697;83;21511;-54
2022/01/06 09:42:36;;;;;;;17.30;11.03;;;;;;;14.67;51.72;100567.34;1694539;83;20994;-54
2022/01/06 09:45:04;;;;;;;15.00;10.15;;;;;;;14.76;51.56;100571.80;1688114;82;21070;-54
2022/01/06 09:47:31;;;;;;;20.82;10.13;;;;;;;14.82;51.37;100568.95;1706306;83;21073;-54
2022/01/06 09:49:57;;;;;;;17.30;10.18;;;;;;;14.89;51.32;100580.86;1693203;82;21045;-55
2022/01/06 09:52:24;;;;;;;13.32;9.25;;;;;;;14.93;51.22;100568.03;1692801;83;21026;-52
2022/01/06 09:54:50;;;;;;;14.33;9.10;;;;;;;14.97;51.16;100576.16;1687880;83;21082;-52
2022/01/06 09:57:17;;;;;;;16.57;9.13;;;;;;;14.97;51.05;100591.42;1705657;83;21071;-54
2022/01/06 09:59:44;;;;;;;11.65;8.88;;;;;;;14.99;51.00;100582.18;1675282;83;21114;-54
2022/01/06 10:02:16;;;;;;;14.78;10.28;;;;;;;14.98;51.03;100583.94;1692468;83;21013;-52
2022/01/06 10:04:39;;;;;;;14.05;9.65;;;;;;;15.00;51.04;100576.04;1696685;83;21018;-54
2022/01/06 10:07:08;;;;;;;15.80;9.35;;;;;;;15.02;50.94;100583.38;1706480;83;21050;-51
2022/01/06 10:09:36;;;;;;;16.23;9.45;;;;;;;15.04;50.95;100585.02;1684801;83;21518;-52
2022/01/06 10:12:08;;;;;;;17.23;9.40;;;;;;;15.06;50.92;100586.25;1706055;81;21562;-54
2022/01/06 10:14:46;;;;;;;12.75;9.13;;;;;;;15.06;50.80;100571.84;1683429;83;21038;-54
2022/01/06 10:17:30;;;;;;;15.75;8.95;;;;;;;15.08;50.63;100568.70;1690097;83;21026;-51
2022/01/06 10:19:56;;;;;;;14.68;9.20;;;;;;;15.05;50.44;100572.75;1621352;87;21606;-55
2022/01/06 10:22:23;;;;;;;12.47;9.03;;;;;;;15.02;50.47;100571.58;1624587;86;21034;-54
2022/01/06 10:24:50;;;;;;;13.10;8.78;;;;;;;14.97;50.62;100571.77;1618812;87;21070;-53
2022/01/06 10:27:19;;;;;;;11.12;9.40;;;;;;;14.95;50.73;100568.81;1623834;87;21055;-53
2022/01/06 10:29:49;;;;;;;11.15;8.60;;;;;;;14.94;50.68;100572.37;1621357;87;21579;-53
2022/01/06 10:32:21;;;;;;;16.70;9.25;;;;;;;14.94;50.80;100561.41;1627535;86;21095;-53
2022/01/06 10:34:52;;;;;;;13.88;9.45;;;;;;;14.97;50.78;100553.88;1552762;90;21094;-53
2022/01/06 10:37:26;;;;;;;;;;;;;;;15.00;50.72;100559.00;1570729;90;21081;-53
2022/01/06 10:39:57;;;;;;;12.07;8.48;;;;;;;15.04;50.56;100554.03;1554899;91;20128;-54
2022/01/06 10:42:26;;;;;;;14.75;9.08;;;;;;;15.10;50.44;100541.52;1550044;91;21054;-52
2022/01/06 10:44:58;;;;;;;12.47;8.15;;;;;;;15.16;50.32;100544.31;1557209;90;21089;-53
2022/01/06 10:47:39;;;;;;;10.48;8.25;;;;;;;15.19;50.00;100537.16;1512431;92;21088;-53
2022/01/06 10:50:12;;;;;;;12.88;8.25;;;;;;;15.19;49.83;100529.75;1517200;92;21127;-53
2022/01/06 10:52:40;;;;;;;9.98;7.87;;;;;;;15.17;49.86;100534.20;1523522;93;21108;-53
2022/01/06 10:55:17;;;;;;;17.12;8.45;;;;;;;15.12;49.82;100534.89;1525814;92;21653;-53
2022/01/06 10:58:01;;;;;;;10.68;7.90;;;;;;;15.07;49.91;100531.16;1551318;90;22315;-53
2022/01/06 11:00:44;;;;;;;13.78;8.25;;;;;;;15.03;50.03;100537.89;1503952;93;21122;-54
2022/01/06 11:03:13;;;;;;;11.75;7.67;;;;;;;15.00;50.13;100527.08;1498166;93;21039;-53
2022/01/06 11:05:52;;;;;;;10.78;8.75;;;;;;;15.00;50.17;100534.11;1509296;93;21573;-53
2022/01/06 11:08:27;;;;;;;13.65;8.68;;;;;;;15.01;50.22;100527.94;1504309;93;21162;-52
2022/01/06 11:13:35;;;;;;;11.38;8.33;;;;;;;15.06;50.17;100523.36;1529093;92;21137;-53
2022/01/06 11:16:03;;;;;;;13.20;9.10;;;;;;;15.10;50.19;100524.93;1532752;92;21577;-53
2022/01/06 11:18:30;;;;;;;11.22;9.08;;;;;;;15.12;50.21;100525.72;1541384;92;21101;-53
2022/01/06 11:21:08;;;;;;;13.85;8.20;;;;;;;15.15;50.11;100525.56;1540033;91;21081;-52
2022/01/06 11:23:35;;;;;;;14.63;9.35;;;;;;;15.19;50.18;100527.12;1542351;91;21695;-53
2022/01/06 11:26:12;;;;;;;15.10;9.75;;;;;;;15.22;50.29;100532.25;1543534;91;21655;-53
2022/01/06 11:28:42;;;;;;;14.07;9.35;;;;;;;15.29;50.34;100528.45;1472800;96;21646;-53
2022/01/06 11:31:21;;;;;;;11.57;8.60;;;;;;;15.35;50.29;100526.87;1410274;101;21154;-53
2022/01/06 11:33:50;;;;;;;21.10;9.25;;;;;;;15.43;50.23;100532.65;1373707;102;21168;-53
2022/01/06 11:36:29;;;;;;;12.80;9.05;;;;;;;15.52;50.12;100530.91;1392121;102;21157;-53
2022/01/06 11:38:56;;;;;;;15.72;9.40;;;;;;;15.62;49.83;100532.18;1355098;104;21209;-53
2022/01/06 11:41:36;;;;;;;13.05;8.28;;;;;;;15.72;49.51;100529.55;1342159;105;21674;-53
2022/01/06 11:44:18;;;;;;;13.80;9.10;;;;;;;15.81;49.22;100526.94;1392399;100;21160;-52